Rockford, IL (61101)

7:13 AM CDT on August 28, 2014 (GMT -0500)
Rockford Plaza | Change Station
CLOSE
Current Station
Personal Weather Station
Location: Rockford, IL
Elevation: 787 ft
Nearby Weather Stations

Elev 787 ft 42.27 °N, 89.06 °W | Updated 9 seconds ago

Mostly Cloudy
Mostly Cloudy
64.4 °F
Feels Like 64.4 °F
N
1.0
Wind Variable Wind from North
Gusts 1.7 mph

Today
High -- | Low -- °F
--% Chance of Precip.
Yesterday
High -- | Low -- °F
Precip. -- in
6:17 AM 7:37 PM
Waxing Crescent, 8% visible
Pressure 30.15 in
Visibility 10.0 miles
Clouds Scattered Clouds 7500 ft
Scattered Clouds 15000 ft
Dew Point 55 °F
Humidity 71%
Rainfall 0.00 in
Snow Depth Not available.
UV 0 out of 12
Pollen 7.70 out of 12
Ozone Good
PM2.5 Good
Flu Activity Not available.
METAR KRFD 281154Z 12005KT 10SM SCT075 SCT150 18/15 A3016 RMK AO2 SLP209 T01780150 10183 20172 53005

More Conditions Fewer Conditions

Pressure 30.15 in
Visibility 10.0 miles
Clouds Scattered Clouds 7500 ft
Scattered Clouds 15000 ft
Dew Point 55 °F
Humidity 71%
Rainfall 0.00 in
Snow Depth Not available.
UV 0 out of 12
Pollen 7.70 out of 12
Ozone Good
PM2.5 Good
Flu Activity Not available.
METAR KRFD 281154Z 12005KT 10SM SCT075 SCT150 18/15 A3016 RMK AO2 SLP209 T01780150 10183 20172 53005

More Conditions Fewer Conditions

10-Day Weather Forecast

Almanac

Astronomy

Aug. 28, 2014 Rise Set
Actual Time 6:17 AM CDT 7:37 PM CDT
Civil Twilight 5:48 AM CDT 8:06 PM CDT
Nautical Twilight 5:13 AM CDT 8:41 PM CDT
Astronomical Twilight 4:36 AM CDT 9:17 PM CDT
Moon 9:14 AM CDT 8:56 PM CDT
Length of Visible Light 14h 17m
Length of Day
13h 19m
Tomorrow will be 2m 42s shorter.
Waxing Crescent, 8% of the Moon is Illuminated
Today
Waxing Crescent
Sep 2
First Quarter
Sep 8
Full
Sep 15
Last Quarter
Sep 24
New

Today's Extremes

State Highs State Lows

Community

WunderPhotos

Upload Photos

1,747,932 photos uploaded!

Nearby

Air Quality

  Air Quality AQ Index Pollutant
Yesterday Good
OZONE
Yesterday Good
PM2.5
Current Good
PM2.5
Current Good
OZONE
Thursday Good
PM2.5

Snow Depth

Station Depth Elevation
No new snow has been reported.

Earthquake Activity

City Distance Mag. Time & Date
No recent earthquake activity has been reported nearby.
Minimum magnitude displayed is 2.5.

Coastal Water Temperatures

Place Temperature
No Stations Reporting

Nearby Weather Stations